Time;durP1;ratioP1;P1;durP2;ratioP2;P2;SDS_P1;SDS_P2;PMS_P1;PMS_P2;Temp;Humidity;BMP_temperature;BMP_pressure;BME280_temperature;BME280_humidity;BME280_pressure;Samples;Min_cycle;Max_cycle;Signal;HPM_P1;HPM_P2
2021/11/03 00:01:43;;;;;;;3.37;2.00;;;5.60;99.90;;;;;;5055489;28;20679;-83
2021/11/03 00:04:09;;;;;;;5.90;2.00;;;5.60;99.90;;;;;;5059406;28;20128;-84
2021/11/03 00:06:38;;;;;;;3.63;2.10;;;5.60;99.90;;;;;;5075139;28;20044;-84
2021/11/03 00:09:04;;;;;;;4.30;2.17;;;5.70;99.90;;;;;;5074730;28;20020;-83
2021/11/03 00:11:32;;;;;;;3.77;2.37;;;5.60;99.90;;;;;;5074509;28;20028;-85
2021/11/03 00:13:57;;;;;;;4.07;2.20;;;5.70;99.90;;;;;;5057781;28;20035;-82
2021/11/03 00:16:23;;;;;;;5.50;1.97;;;5.70;99.90;;;;;;5060248;28;20081;-81
2021/11/03 00:18:49;;;;;;;4.20;1.93;;;5.70;99.90;;;;;;5059061;28;20500;-83
2021/11/03 00:21:14;;;;;;;4.33;2.17;;;5.70;99.90;;;;;;5060276;28;20761;-83
2021/11/03 00:23:40;;;;;;;4.27;1.97;;;5.80;99.90;;;;;;5066090;28;20100;-82
2021/11/03 00:26:06;;;;;;;3.43;1.90;;;5.80;99.90;;;;;;5056228;28;20051;-81
2021/11/03 00:28:32;;;;;;;4.67;2.13;;;5.70;99.90;;;;;;5066041;28;20067;-81
2021/11/03 00:30:59;;;;;;;4.17;1.63;;;5.70;99.90;;;;;;5064041;28;20093;-83
2021/11/03 00:33:27;;;;;;;4.53;1.90;;;5.70;99.90;;;;;;5058934;28;20124;-82
2021/11/03 00:35:53;;;;;;;4.57;2.10;;;5.80;99.90;;;;;;5057638;28;20047;-82
2021/11/03 00:38:20;;;;;;;4.77;2.00;;;5.80;99.90;;;;;;5057082;28;20075;-82
2021/11/03 00:40:46;;;;;;;4.70;2.00;;;5.80;99.90;;;;;;5058375;28;20029;-82
2021/11/03 00:43:11;;;;;;;4.50;2.27;;;5.80;99.90;;;;;;5069724;28;20032;-82
2021/11/03 00:45:37;;;;;;;3.33;1.60;;;5.80;99.90;;;;;;5064058;28;20025;-81
2021/11/03 00:48:03;;;;;;;5.03;2.20;;;5.80;99.90;;;;;;5057063;28;20028;-82
2021/11/03 00:50:29;;;;;;;4.47;1.70;;;5.80;99.90;;;;;;5054214;28;20036;-83
2021/11/03 00:52:55;;;;;;;4.07;2.03;;;5.80;99.90;;;;;;5057032;28;20389;-80
2021/11/03 00:55:21;;;;;;;5.90;2.27;;;5.80;99.90;;;;;;5057923;28;20070;-81
2021/11/03 00:57:47;;;;;;;3.53;1.73;;;5.80;99.90;;;;;;5057698;28;20047;-82
2021/11/03 01:00:17;;;;;;;3.57;1.90;;;5.80;99.90;;;;;;5054926;28;20036;-80
2021/11/03 01:02:43;;;;;;;3.13;1.23;;;5.80;99.90;;;;;;5058333;28;20430;-82
2021/11/03 01:05:11;;;;;;;2.63;1.33;;;5.80;99.90;;;;;;5055638;28;20075;-81
2021/11/03 01:07:37;;;;;;;3.00;1.43;;;5.80;99.90;;;;;;5065315;28;20036;-81
2021/11/03 01:10:05;;;;;;;2.80;1.40;;;5.80;99.90;;;;;;5071544;28;20032;-79
2021/11/03 01:12:30;;;;;;;3.70;1.70;;;5.80;99.90;;;;;;5057024;28;20485;-83
2021/11/03 01:14:56;;;;;;;3.47;1.63;;;5.80;99.90;;;;;;5055962;28;20108;-82
2021/11/03 01:17:22;;;;;;;3.60;1.43;;;5.80;99.90;;;;;;5055290;28;20482;-81
2021/11/03 01:19:47;;;;;;;3.97;1.60;;;5.80;99.90;;;;;;5058713;28;20028;-82
2021/11/03 01:22:13;;;;;;;4.50;1.30;;;5.70;99.90;;;;;;5069235;28;20021;-80
2021/11/03 01:24:39;;;;;;;3.00;1.40;;;5.70;99.90;;;;;;5052767;28;20029;-81
2021/11/03 01:27:04;;;;;;;3.47;1.40;;;5.70;99.90;;;;;;5059527;28;20025;-79
2021/11/03 01:29:30;;;;;;;4.27;1.70;;;5.70;99.90;;;;;;5067594;28;20020;-80
2021/11/03 01:31:56;;;;;;;3.07;1.23;;;5.60;99.90;;;;;;5065959;28;20044;-81
2021/11/03 01:34:21;;;;;;;3.37;1.50;;;5.60;99.90;;;;;;5057328;28;20854;-80
2021/11/03 01:36:47;;;;;;;2.97;1.60;;;5.60;99.90;;;;;;5055692;28;20025;-80
2021/11/03 01:39:12;;;;;;;3.60;1.70;;;5.60;99.90;;;;;;5053861;28;20033;-81
2021/11/03 01:41:38;;;;;;;3.67;1.60;;;5.60;99.90;;;;;;5055918;28;20036;-82
2021/11/03 01:44:09;;;;;;;3.90;1.60;;;5.60;99.90;;;;;;5055236;28;20040;-81
2021/11/03 01:46:41;;;;;;;3.20;1.50;;;5.60;99.90;;;;;;5054448;28;20055;-82
2021/11/03 01:49:13;;;;;;;;;;;5.60;99.90;;;;;;5070504;28;20525;-79
2021/11/03 01:51:59;;;;;;;4.57;1.58;;;5.50;99.90;;;;;;5081314;28;19908;-81
2021/11/03 01:55:04;;;;;;;4.93;1.77;;;5.40;99.90;;;;;;5073668;28;20036;-82
2021/11/03 01:57:34;;;;;;;2.87;1.63;;;5.30;99.90;;;;;;5013417;28;20125;-80
2021/11/03 02:00:06;;;;;;;4.40;1.60;;;5.30;99.90;;;;;;5018248;28;20049;-79
2021/11/03 02:02:34;;;;;;;3.53;1.80;;;5.40;99.90;;;;;;5047574;28;20040;-81
2021/11/03 02:05:00;;;;;;;5.00;1.90;;;5.40;99.90;;;;;;5074425;28;20497;-82
2021/11/03 02:07:27;;;;;;;4.03;1.77;;;5.50;99.90;;;;;;5063787;28;20031;-80
2021/11/03 02:09:54;;;;;;;3.87;1.40;;;5.50;99.90;;;;;;5053829;28;20031;-81
2021/11/03 02:12:23;;;;;;;3.37;1.40;;;5.60;99.90;;;;;;5055177;28;20087;-82
2021/11/03 02:14:50;;;;;;;4.27;1.67;;;5.60;99.90;;;;;;5062275;28;20021;-80
2021/11/03 02:17:17;;;;;;;2.83;1.13;;;5.70;99.90;;;;;;5065706;28;20799;-81
2021/11/03 02:19:44;;;;;;;2.73;1.10;;;5.70;99.90;;;;;;5063394;28;20111;-81
2021/11/03 02:22:18;;;;;;;4.53;1.27;;;5.70;99.90;;;;;;5071545;28;20025;-82
2021/11/03 02:24:51;;;;;;;3.33;1.47;;;5.70;99.90;;;;;;5057350;28;20031;-82
2021/11/03 02:27:18;;;;;;;2.20;1.20;;;5.70;99.90;;;;;;5056514;28;20032;-81
2021/11/03 02:29:44;;;;;;;3.37;1.27;;;5.70;99.90;;;;;;5074048;28;20067;-81
2021/11/03 02:32:30;;;;;;;5.70;1.43;;;5.60;99.90;;;;;;5070171;28;20017;-82
2021/11/03 02:34:56;;;;;;;2.77;1.20;;;5.60;99.90;;;;;;5076045;28;20021;-82
2021/11/03 02:37:27;;;;;;;4.10;1.63;;;5.60;99.90;;;;;;5074038;28;20024;-80
2021/11/03 02:40:22;;;;;;;4.43;1.95;;;5.60;99.90;;;;;;5067112;28;20028;-81
2021/11/03 02:42:58;;;;;;;4.47;2.13;;;5.60;99.90;;;;;;5073634;28;20036;-82
2021/11/03 02:45:50;;;;;;;4.43;2.03;;;5.60;99.90;;;;;;5075483;28;20058;-79
2021/11/03 02:48:16;;;;;;;3.20;1.90;;;5.70;99.90;;;;;;5084371;28;20444;-81
2021/11/03 02:50:53;;;;;;;3.70;1.50;;;5.70;99.90;;;;;;5055326;28;20036;-82
2021/11/03 02:53:18;;;;;;;3.07;1.63;;;5.70;99.90;;;;;;5054892;28;20032;-81
2021/11/03 02:55:44;;;;;;;5.30;1.37;;;5.70;99.90;;;;;;5056022;28;20051;-82
2021/11/03 02:58:10;;;;;;;2.20;1.00;;;5.80;99.90;;;;;;5070454;28;20029;-82
2021/11/03 03:00:36;;;;;;;1.77;0.93;;;5.80;99.90;;;;;;5052865;28;20035;-80
2021/11/03 03:03:01;;;;;;;2.73;1.17;;;5.80;99.90;;;;;;5054573;28;20029;-82
2021/11/03 03:05:27;;;;;;;3.30;1.23;;;5.80;99.90;;;;;;5061778;28;20025;-82
2021/11/03 03:07:52;;;;;;;4.30;1.60;;;5.70;99.90;;;;;;5061720;28;20025;-82
2021/11/03 03:10:18;;;;;;;3.43;1.40;;;5.70;99.90;;;;;;5054411;28;20025;-81
2021/11/03 03:12:44;;;;;;;3.00;1.20;;;5.70;99.90;;;;;;5073531;23;20049;-84
2021/11/03 03:15:10;;;;;;;1.97;0.90;;;5.70;99.90;;;;;;5073482;28;20057;-85
2021/11/03 03:17:36;;;;;;;1.90;1.00;;;5.70;99.90;;;;;;5075400;28;20035;-84
2021/11/03 03:20:02;;;;;;;3.07;1.07;;;5.70;99.90;;;;;;5090426;28;20031;-85
2021/11/03 03:22:27;;;;;;;3.57;0.93;;;5.70;99.90;;;;;;5079424;28;20507;-84
2021/11/03 03:24:53;;;;;;;2.17;1.10;;;5.80;99.90;;;;;;5072574;28;20024;-85
2021/11/03 03:27:19;;;;;;;2.57;1.30;;;5.80;99.90;;;;;;5075099;28;20020;-85
2021/11/03 03:29:45;;;;;;;2.60;1.00;;;5.80;99.90;;;;;;5084909;28;20024;-86
2021/11/03 03:32:11;;;;;;;4.23;1.40;;;5.80;99.90;;;;;;5075014;28;20050;-85
2021/11/03 03:34:37;;;;;;;3.17;1.20;;;5.70;99.90;;;;;;5058320;28;20496;-84
2021/11/03 03:37:03;;;;;;;2.70;1.00;;;5.70;99.90;;;;;;5054790;28;20029;-85
2021/11/03 03:39:29;;;;;;;2.60;1.20;;;5.70;99.90;;;;;;5079969;28;20028;-85
2021/11/03 03:42:07;;;;;;;3.20;1.27;;;5.60;99.90;;;;;;5063997;28;20039;-85
2021/11/03 03:44:34;;;;;;;3.23;1.30;;;5.60;99.90;;;;;;5059325;28;20028;-84
2021/11/03 03:46:59;;;;;;;3.63;1.50;;;5.60;99.90;;;;;;5061223;28;20484;-84
2021/11/03 03:49:25;;;;;;;4.83;1.60;;;5.60;99.90;;;;;;5075410;28;20028;-85
2021/11/03 03:51:51;;;;;;;2.37;1.40;;;5.60;99.90;;;;;;5075444;28;20025;-85
2021/11/03 03:54:17;;;;;;;3.47;1.60;;;5.50;99.90;;;;;;5058971;28;20035;-85
2021/11/03 03:56:42;;;;;;;3.83;1.50;;;5.50;99.90;;;;;;5058869;28;20033;-85
2021/11/03 03:59:08;;;;;;;2.73;1.30;;;5.50;99.90;;;;;;5058598;28;20025;-84
2021/11/03 04:01:34;;;;;;;6.30;1.50;;;5.40;99.90;;;;;;5058126;28;20028;-85
2021/11/03 04:03:59;;;;;;;2.80;1.47;;;5.50;99.90;;;;;;5065200;28;20028;-85
2021/11/03 04:06:25;;;;;;;4.27;1.47;;;5.40;99.90;;;;;;5075265;28;20042;-84
2021/11/03 04:08:51;;;;;;;3.43;1.63;;;5.40;99.90;;;;;;5075482;28;20024;-85
2021/11/03 04:11:17;;;;;;;5.60;1.87;;;5.40;99.90;;;;;;5076168;28;20123;-85
2021/11/03 04:13:43;;;;;;;3.73;1.57;;;5.40;99.90;;;;;;5084299;28;20036;-84
2021/11/03 04:16:09;;;;;;;3.47;1.90;;;5.40;99.90;;;;;;5078893;28;20039;-85
2021/11/03 04:18:35;;;;;;;4.03;1.70;;;5.50;99.90;;;;;;5077732;28;20035;-85
2021/11/03 04:21:00;;;;;;;5.37;1.73;;;5.40;99.90;;;;;;5074577;28;20028;-84
2021/11/03 04:23:26;;;;;;;5.23;2.07;;;5.40;99.90;;;;;;5076415;28;20024;-85
2021/11/03 04:25:52;;;;;;;5.50;1.70;;;5.40;99.90;;;;;;5078665;28;20020;-84
2021/11/03 04:28:18;;;;;;;3.67;1.57;;;5.40;99.90;;;;;;5074383;28;20059;-84
2021/11/03 04:30:45;;;;;;;3.80;1.77;;;5.40;99.90;;;;;;5065615;28;20033;-84
2021/11/03 04:33:10;;;;;;;4.87;1.70;;;5.50;99.90;;;;;;5076839;28;20044;-85
2021/11/03 04:35:37;;;;;;;4.00;1.90;;;5.50;99.90;;;;;;5075550;28;20028;-84
2021/11/03 04:38:03;;;;;;;4.10;1.80;;;5.40;99.90;;;;;;5077126;28;20483;-85
2021/11/03 04:40:29;;;;;;;3.23;1.47;;;5.40;99.90;;;;;;5072812;28;20025;-85
2021/11/03 04:42:56;;;;;;;3.37;1.50;;;5.40;99.90;;;;;;5093557;28;20008;-85
2021/11/03 04:45:23;;;;;;;2.73;1.40;;;5.40;99.90;;;;;;5079559;28;20043;-85
2021/11/03 04:47:49;;;;;;;5.03;1.93;;;5.40;99.90;;;;;;5106492;28;20092;-85
2021/11/03 04:50:21;;;;;;;2.73;1.43;;;5.40;99.90;;;;;;5096474;28;20032;-85
2021/11/03 04:52:47;;;;;;;3.42;1.65;;;5.50;99.90;;;;;;5091160;28;20028;-84
2021/11/03 04:55:13;;;;;;;4.33;1.70;;;5.40;99.90;;;;;;5065207;28;20437;-85
2021/11/03 04:57:39;;;;;;;2.97;1.50;;;5.50;99.90;;;;;;5076975;28;20028;-85
2021/11/03 05:00:09;;;;;;;5.37;1.70;;;5.50;99.90;;;;;;5093568;28;20031;-84
2021/11/03 05:02:35;;;;;;;3.73;1.50;;;5.50;99.90;;;;;;5077511;28;20028;-84
2021/11/03 05:05:01;;;;;;;2.67;1.40;;;5.50;99.90;;;;;;5077294;28;20021;-84
2021/11/03 05:07:27;;;;;;;4.47;1.20;;;5.50;99.90;;;;;;5093075;28;20034;-85
2021/11/03 05:09:52;;;;;;;4.23;1.50;;;5.50;99.90;;;;;;5056567;28;20063;-85
2021/11/03 05:12:18;;;;;;;3.77;0.93;;;5.50;99.90;;;;;;5074027;28;20063;-85
2021/11/03 05:14:43;;;;;;;3.07;1.10;;;5.60;99.90;;;;;;5056119;28;20029;-85
2021/11/03 05:17:10;;;;;;;4.80;1.20;;;5.60;99.90;;;;;;5074861;28;20051;-85
2021/11/03 05:19:36;;;;;;;2.40;1.07;;;5.70;99.90;;;;;;5073529;28;20024;-85
2021/11/03 05:22:04;;;;;;;6.17;1.40;;;5.70;99.90;;;;;;5091978;28;20417;-84
2021/11/03 05:24:30;;;;;;;3.30;1.20;;;5.70;99.90;;;;;;5073302;28;20032;-85
2021/11/03 05:26:55;;;;;;;2.57;0.87;;;5.70;99.90;;;;;;5073733;28;20286;-84
2021/11/03 05:29:22;;;;;;;3.27;1.30;;;5.70;99.90;;;;;;5074673;28;20067;-85
2021/11/03 05:31:48;;;;;;;2.83;1.23;;;5.70;99.90;;;;;;5091970;28;20035;-84
2021/11/03 05:34:14;;;;;;;2.67;1.10;;;5.70;99.90;;;;;;5064962;28;20055;-85
2021/11/03 05:36:40;;;;;;;3.60;1.37;;;5.80;99.90;;;;;;5074176;28;20051;-84
2021/11/03 05:39:10;;;;;;;4.77;1.63;;;5.70;99.90;;;;;;5073349;28;20059;-85
2021/11/03 05:41:39;;;;;;;2.97;0.97;;;5.70;99.90;;;;;;5063694;28;20024;-85
2021/11/03 05:44:14;;;;;;;2.70;1.30;;;5.70;99.90;;;;;;5054494;28;20024;-84
2021/11/03 05:46:49;;;;;;;2.13;1.00;;;5.70;99.90;;;;;;5054388;28;20079;-85
2021/11/03 05:49:16;;;;;;;2.83;1.10;;;5.70;99.90;;;;;;5053715;28;20488;-85
2021/11/03 05:51:46;;;;;;;1.80;0.93;;;5.80;99.90;;;;;;5060898;28;20112;-85
2021/11/03 05:54:12;;;;;;;2.70;1.00;;;5.80;99.90;;;;;;5071811;28;20058;-84
2021/11/03 05:56:38;;;;;;;2.57;1.10;;;5.90;99.90;;;;;;5074312;28;20028;-85
2021/11/03 05:59:05;;;;;;;3.57;1.10;;;5.90;99.90;;;;;;5073810;28;20030;-85
2021/11/03 06:01:31;;;;;;;2.83;1.30;;;5.90;99.90;;;;;;5068937;28;20381;-84
2021/11/03 06:03:56;;;;;;;2.53;1.10;;;5.90;99.90;;;;;;5053358;28;20027;-85
2021/11/03 06:06:23;;;;;;;3.93;1.50;;;5.90;99.90;;;;;;5070119;28;20401;-84
2021/11/03 06:08:50;;;;;;;2.97;1.27;;;5.90;99.90;;;;;;5070233;28;20025;-85
2021/11/03 06:11:18;;;;;;;3.57;1.60;;;5.90;99.90;;;;;;5053026;28;20456;-85
2021/11/03 06:13:44;;;;;;;4.07;1.33;;;5.80;99.90;;;;;;5069925;28;20073;-83
2021/11/03 06:16:10;;;;;;;3.07;1.50;;;5.80;99.90;;;;;;5053555;28;20024;-84
2021/11/03 06:18:35;;;;;;;4.70;2.40;;;5.80;99.90;;;;;;5055213;28;20112;-85
2021/11/03 06:21:01;;;;;;;4.20;1.90;;;5.80;99.90;;;;;;5060661;28;20020;-84
2021/11/03 06:23:27;;;;;;;6.93;2.70;;;5.90;99.90;;;;;;5053456;28;20152;-84
2021/11/03 06:25:52;;;;;;;5.97;2.83;;;5.90;99.90;;;;;;5063426;28;20733;-84
2021/11/03 06:28:19;;;;;;;5.13;2.07;;;5.90;99.90;;;;;;5090611;28;20036;-85
2021/11/03 06:30:45;;;;;;;5.67;2.47;;;5.90;99.90;;;;;;5072129;28;20488;-85
2021/11/03 06:33:11;;;;;;;4.87;2.20;;;5.90;99.90;;;;;;5070052;28;20396;-85
2021/11/03 06:35:38;;;;;;;6.27;2.43;;;6.00;99.90;;;;;;5052591;28;20038;-85
2021/11/03 06:38:06;;;;;;;4.83;1.60;;;6.00;99.90;;;;;;5083956;28;20064;-85
2021/11/03 06:40:33;;;;;;;3.53;1.70;;;6.10;99.90;;;;;;5085530;28;20540;-84
2021/11/03 06:42:58;;;;;;;3.23;1.33;;;6.10;99.90;;;;;;5086341;28;20059;-85
2021/11/03 06:45:25;;;;;;;3.43;1.50;;;6.00;99.90;;;;;;5076197;28;20028;-85
2021/11/03 06:47:51;;;;;;;4.27;1.80;;;6.00;99.90;;;;;;5087014;28;20081;-85
2021/11/03 06:50:30;;;;;;;1.67;0.70;;;6.00;99.90;;;;;;5068434;28;20429;-85
2021/11/03 06:52:59;;;;;;;3.57;1.00;;;6.10;99.90;;;;;;5085324;28;20024;-85
2021/11/03 06:55:25;;;;;;;2.17;0.80;;;6.10;99.90;;;;;;5069941;28;20020;-85
2021/11/03 06:57:51;;;;;;;2.80;1.10;;;6.20;99.90;;;;;;5073264;28;20050;-86
2021/11/03 07:00:23;;;;;;;2.20;0.87;;;6.20;99.90;;;;;;5086057;28;20024;-85
2021/11/03 07:02:49;;;;;;;2.00;0.90;;;6.20;99.90;;;;;;5089005;28;20012;-85
2021/11/03 07:05:15;;;;;;;2.40;1.37;;;6.20;99.90;;;;;;5069404;28;20159;-85
2021/11/03 07:07:41;;;;;;;3.87;1.00;;;6.30;99.90;;;;;;5071085;28;20013;-86
2021/11/03 07:10:10;;;;;;;3.70;1.20;;;6.30;99.90;;;;;;5071068;28;20325;-86
2021/11/03 07:12:36;;;;;;;3.00;1.10;;;6.30;99.90;;;;;;5064909;28;20473;-85
2021/11/03 07:15:02;;;;;;;2.97;1.30;;;6.30;99.90;;;;;;5070966;28;20020;-85
2021/11/03 07:17:27;;;;;;;2.93;1.50;;;6.40;99.90;;;;;;5069790;28;20012;-85
2021/11/03 07:19:54;;;;;;;2.67;1.23;;;6.30;99.90;;;;;;5070349;28;20038;-85
2021/11/03 07:22:19;;;;;;;3.00;1.40;;;6.30;99.90;;;;;;5072828;28;20024;-84
2021/11/03 07:24:45;;;;;;;4.10;1.90;;;6.30;99.90;;;;;;5072709;28;20038;-85
2021/11/03 07:27:11;;;;;;;3.33;1.50;;;6.40;99.90;;;;;;5093750;28;20476;-85
2021/11/03 07:29:40;;;;;;;3.80;1.10;;;6.40;99.90;;;;;;5063695;28;20024;-85
2021/11/03 07:32:07;;;;;;;3.77;1.53;;;6.40;99.90;;;;;;5073131;28;20035;-85
2021/11/03 07:34:32;;;;;;;3.10;1.40;;;6.50;99.90;;;;;;5086094;28;20077;-85
2021/11/03 07:36:58;;;;;;;2.87;1.20;;;6.50;99.90;;;;;;5092718;28;20020;-84
2021/11/03 07:39:23;;;;;;;3.30;1.10;;;6.50;99.90;;;;;;5082282;28;20035;-84
2021/11/03 07:41:49;;;;;;;2.30;0.90;;;6.50;99.90;;;;;;5076204;28;20077;-84
2021/11/03 07:44:16;;;;;;;2.57;1.10;;;6.50;99.90;;;;;;5072374;28;20036;-83
2021/11/03 07:46:42;;;;;;;1.77;0.73;;;6.60;99.90;;;;;;5069042;28;20017;-83
2021/11/03 07:49:08;;;;;;;2.63;1.27;;;6.60;99.90;;;;;;5073030;28;20086;-83
2021/11/03 07:51:34;;;;;;;6.53;1.03;;;6.60;99.90;;;;;;5073397;28;20439;-84
2021/11/03 07:54:00;;;;;;;2.70;0.83;;;6.60;99.90;;;;;;5074054;28;20464;-84
2021/11/03 07:56:28;;;;;;;2.23;1.00;;;6.70;99.90;;;;;;5085829;28;20278;-84
2021/11/03 07:58:55;;;;;;;5.03;0.83;;;6.70;99.90;;;;;;5068626;28;20036;-83
2021/11/03 08:01:21;;;;;;;2.83;1.03;;;6.80;99.90;;;;;;5068280;28;20028;-84
2021/11/03 08:03:46;;;;;;;2.30;1.00;;;6.90;99.90;;;;;;5068441;28;20028;-83
2021/11/03 08:06:13;;;;;;;2.03;1.00;;;6.90;99.90;;;;;;5071186;28;20016;-83
2021/11/03 08:08:49;;;;;;;1.10;0.50;;;7.00;99.90;;;;;;5093468;28;20036;-83
2021/11/03 08:11:15;;;;;;;1.90;0.60;;;7.10;99.90;;;;;;5093938;28;20107;-83
2021/11/03 08:13:41;;;;;;;1.20;0.47;;;7.10;99.90;;;;;;5096050;28;20451;-83
2021/11/03 08:16:08;;;;;;;1.33;0.40;;;7.10;99.90;;;;;;5072107;28;20044;-86
2021/11/03 08:18:41;;;;;;;1.40;0.57;;;7.20;99.90;;;;;;5072861;28;20024;-85
2021/11/03 08:21:07;;;;;;;2.77;0.70;;;7.20;99.90;;;;;;5077036;28;20020;-84
2021/11/03 08:23:33;;;;;;;1.13;0.40;;;7.20;99.90;;;;;;5090112;28;20494;-83
2021/11/03 08:25:58;;;;;;;1.20;0.30;;;7.30;99.90;;;;;;5076373;28;20020;-83
2021/11/03 08:28:24;;;;;;;1.23;0.40;;;7.40;99.90;;;;;;5067655;28;20613;-83
2021/11/03 08:30:54;;;;;;;1.90;0.43;;;7.50;99.90;;;;;;5084947;28;20048;-83
2021/11/03 08:33:28;;;;;;;1.60;0.57;;;7.50;99.90;;;;;;5070523;28;20036;-84
2021/11/03 08:35:55;;;;;;;2.20;0.50;;;7.50;99.90;;;;;;5086157;28;20020;-84
2021/11/03 08:38:24;;;;;;;1.53;0.60;;;7.50;99.90;;;;;;5086137;28;20024;-84
2021/11/03 08:40:51;;;;;;;1.13;0.40;;;7.60;99.90;;;;;;5066605;28;20016;-84
2021/11/03 08:43:23;;;;;;;1.50;0.50;;;7.60;99.90;;;;;;5087784;28;20103;-84
2021/11/03 08:45:52;;;;;;;2.43;0.90;;;7.60;99.90;;;;;;5063260;28;20118;-84
2021/11/03 08:48:20;;;;;;;1.60;0.60;;;7.60;99.90;;;;;;5068372;28;20032;-84
2021/11/03 08:50:46;;;;;;;1.27;0.50;;;7.60;99.90;;;;;;5071908;28;20085;-84
2021/11/03 08:53:14;;;;;;;2.40;0.40;;;7.60;99.90;;;;;;5067494;28;20561;-84
2021/11/03 08:55:42;;;;;;;1.70;0.50;;;7.70;99.90;;;;;;5070886;28;20048;-83
2021/11/03 08:58:10;;;;;;;0.77;0.40;;;7.70;99.90;;;;;;5064781;28;20117;-83
2021/11/03 09:00:38;;;;;;;0.87;0.40;;;7.80;99.90;;;;;;5072485;28;20642;-84
2021/11/03 09:03:04;;;;;;;1.67;0.80;;;7.80;99.90;;;;;;5091127;28;20016;-83
2021/11/03 09:05:32;;;;;;;2.00;0.70;;;7.80;99.90;;;;;;5070899;28;20413;-84
2021/11/03 09:08:02;;;;;;;2.60;0.70;;;7.80;99.90;;;;;;5092922;28;20032;-83
2021/11/03 09:10:31;;;;;;;1.53;0.60;;;7.80;99.90;;;;;;5071588;28;20028;-84
2021/11/03 09:12:58;;;;;;;4.57;0.70;;;7.90;99.90;;;;;;5091155;23;20062;-80
2021/11/03 09:15:24;;;;;;;1.30;0.50;;;7.90;99.90;;;;;;5097237;28;20016;-81
2021/11/03 09:17:50;;;;;;;1.33;0.50;;;8.00;99.90;;;;;;5061627;28;20067;-81
2021/11/03 09:20:18;;;;;;;2.10;0.47;;;8.10;99.90;;;;;;5079587;28;20052;-81
2021/11/03 09:22:43;;;;;;;1.50;0.53;;;8.20;99.90;;;;;;5097337;28;20105;-82
2021/11/03 09:25:13;;;;;;;0.83;0.40;;;8.30;99.90;;;;;;5080518;28;20020;-82
2021/11/03 09:27:39;;;;;;;1.30;0.43;;;8.40;99.90;;;;;;5079621;28;20051;-81
2021/11/03 09:30:07;;;;;;;2.30;0.60;;;8.50;99.90;;;;;;5076794;28;20036;-82
2021/11/03 09:32:34;;;;;;;1.70;0.60;;;8.50;99.90;;;;;;5077896;28;20527;-82
2021/11/03 09:35:00;;;;;;;2.23;0.50;;;8.50;99.90;;;;;;5064681;28;20032;-82
2021/11/03 09:37:27;;;;;;;1.10;0.50;;;8.50;99.90;;;;;;5081328;28;20054;-82
2021/11/03 09:39:54;;;;;;;1.07;0.47;;;8.60;99.90;;;;;;5052789;28;20035;-82
2021/11/03 09:42:23;;;;;;;0.57;0.30;;;8.60;99.90;;;;;;5056479;28;20032;-79
2021/11/03 09:44:52;;;;;;;1.93;0.47;;;8.60;99.90;;;;;;5054821;28;20028;-82
2021/11/03 09:47:22;;;;;;;1.67;0.30;;;8.60;99.90;;;;;;5072232;28;20043;-82
2021/11/03 09:49:49;;;;;;;1.70;0.50;;;8.70;99.90;;;;;;5051909;28;20028;-82
2021/11/03 09:52:29;;;;;;;1.07;0.40;;;8.70;99.90;;;;;;5054710;28;20417;-83
2021/11/03 09:55:13;;;;;;;1.53;0.60;;;8.80;99.90;;;;;;5066969;28;20021;-83
2021/11/03 09:58:18;;;;;;;1.10;0.40;;;8.80;99.90;;;;;;5071070;28;20024;-82
2021/11/03 10:00:48;;;;;;;2.60;0.40;;;8.90;99.90;;;;;;5052210;28;20556;-82
2021/11/03 10:03:22;;;;;;;1.63;0.30;;;8.80;99.90;;;;;;5052215;28;20017;-82
2021/11/03 10:06:03;;;;;;;1.33;0.40;;;8.80;99.90;;;;;;5044500;28;20032;-82
2021/11/03 10:08:38;;;;;;;1.73;0.50;;;8.80;99.90;;;;;;5063809;28;20025;-82
2021/11/03 10:11:16;;;;;;;1.65;0.63;;;8.80;99.90;;;;;;5064569;28;20020;-82
2021/11/03 10:13:44;;;;;;;1.17;0.50;;;8.80;99.90;;;;;;5067221;28;20036;-81
2021/11/03 10:16:13;;;;;;;1.25;0.63;;;8.80;99.90;;;;;;5069744;28;20078;-80
2021/11/03 10:19:05;;;;;;;1.17;0.55;;;8.80;99.90;;;;;;5067572;28;20482;-82
2021/11/03 10:21:31;;;;;;;1.23;0.38;;;8.90;99.90;;;;;;5051991;28;20480;-82
2021/11/03 10:24:05;;;;;;;1.23;0.60;;;8.90;99.90;;;;;;5057748;28;20025;-83
2021/11/03 10:26:52;;;;;;;1.23;0.50;;;8.80;99.90;;;;;;5049864;28;20043;-83
2021/11/03 10:29:25;;;;;;;1.88;0.80;;;8.90;99.90;;;;;;5054426;28;20050;-84
2021/11/03 10:31:58;;;;;;;0.95;0.55;;;8.90;99.90;;;;;;5049901;28;20032;-84
2021/11/03 10:34:40;;;;;;;2.28;0.60;;;8.90;99.90;;;;;;5069339;28;20039;-84
2021/11/03 10:37:24;;;;;;;1.33;0.60;;;8.90;99.90;;;;;;5067652;28;20568;-85
2021/11/03 10:39:56;;;;;;;1.50;0.60;;;8.90;99.90;;;;;;5066025;28;20111;-84
2021/11/03 10:42:34;;;;;;;1.17;0.43;;;9.00;99.90;;;;;;5048040;28;20021;-83
2021/11/03 10:45:15;;;;;;;1.80;0.55;;;9.00;99.90;;;;;;5050018;28;20115;-83
2021/11/03 10:47:52;;;;;;;1.50;0.70;;;9.00;99.90;;;;;;5046079;28;20046;-83
2021/11/03 10:50:27;;;;;;;1.10;0.50;;;8.90;99.90;;;;;;5068773;28;20036;-83
2021/11/03 10:53:13;;;;;;;1.13;0.40;;;8.90;99.90;;;;;;5070808;28;20036;-83
2021/11/03 10:55:41;;;;;;;1.15;0.45;;;8.90;99.90;;;;;;5056326;28;20058;-82
2021/11/03 10:58:12;;;;;;;2.33;0.80;;;8.90;99.90;;;;;;5075406;28;20032;-84
2021/11/03 11:01:03;;;;;;;1.33;0.60;;;8.90;99.90;;;;;;5061796;28;20021;-84
2021/11/03 11:03:33;;;;;;;1.45;0.50;;;8.90;99.90;;;;;;5074959;28;20048;-83
2021/11/03 11:06:26;;;;;;;1.15;0.50;;;8.90;99.90;;;;;;5073784;28;20039;-84
2021/11/03 11:09:01;;;;;;;1.03;0.50;;;9.00;99.90;;;;;;5058936;28;20037;-84
2021/11/03 11:11:29;;;;;;;3.83;0.93;;;9.00;99.90;;;;;;5062130;28;20488;-84
2021/11/03 11:14:01;;;;;;;1.33;0.60;;;9.10;99.90;;;;;;5073001;28;20107;-85
2021/11/03 11:16:57;;;;;;;1.85;0.63;;;9.00;99.90;;;;;;5073738;28;20021;-84
2021/11/03 11:19:32;;;;;;;1.33;0.50;;;9.10;99.90;;;;;;5076068;28;20167;-84
2021/11/03 11:22:08;;;;;;;1.83;0.40;;;9.10;99.90;;;;;;5075738;28;20025;-84
2021/11/03 11:24:53;;;;;;;1.20;0.50;;;9.00;99.90;;;;;;5072656;28;20033;-83
2021/11/03 11:27:45;;;;;;;2.00;0.63;;;9.00;99.90;;;;;;5060176;28;20056;-84
2021/11/03 11:30:17;;;;;;;1.80;0.63;;;9.00;99.90;;;;;;5010858;28;20036;-83
2021/11/03 11:33:27;;;;;;;1.20;0.50;;;9.10;99.90;;;;;;5073164;28;20095;-82
2021/11/03 11:36:02;;;;;;;1.48;0.50;;;9.10;99.90;;;;;;5014272;28;20462;-83
2021/11/03 11:39:06;;;;;;;0.68;0.40;;;9.20;99.90;;;;;;4993267;28;20028;-82
2021/11/03 11:41:47;;;;;;;2.35;0.77;;;9.20;99.90;;;;;;5024264;28;20033;-80
2021/11/03 11:44:30;;;;;;;2.43;0.90;;;9.20;99.90;;;;;;5049892;28;20016;-83
2021/11/03 11:47:00;;;;;;;1.55;0.70;;;9.30;99.90;;;;;;5051867;28;21073;-82
2021/11/03 11:49:43;;;;;;;3.75;0.73;;;9.20;99.90;;;;;;5068738;28;20149;-81
2021/11/03 11:52:34;;;;;;;5.18;1.40;;;9.30;99.90;;;;;;5040916;28;20036;-82
2021/11/03 11:55:12;;;;;;;2.00;0.75;;;9.30;99.90;;;;;;5061569;28;20066;-82
2021/11/03 11:57:39;;;;;;;2.53;1.02;;;9.40;99.90;;;;;;5050248;28;20111;-82
2021/11/03 12:00:08;;;;;;;1.60;0.68;;;9.30;99.90;;;;;;5052233;28;20546;-82
2021/11/03 12:02:57;;;;;;;1.25;0.50;;;9.30;99.90;;;;;;5068227;28;20016;-82
2021/11/03 12:05:45;;;;;;;1.65;0.50;;;9.20;99.90;;;;;;5056855;28;20089;-83
2021/11/03 12:08:11;;;;;;;2.15;0.50;;;9.30;99.90;;;;;;5073226;28;20046;-83
2021/11/03 12:11:07;;;;;;;1.45;0.50;;;9.30;99.90;;;;;;5074003;28;20107;-83
2021/11/03 12:13:45;;;;;;;1.88;0.40;;;9.30;99.90;;;;;;5068008;28;20081;-82
2021/11/03 12:16:33;;;;;;;1.55;0.47;;;9.40;99.90;;;;;;5055904;28;20527;-82
2021/11/03 12:19:03;;;;;;;1.83;0.90;;;9.30;99.90;;;;;;5057519;28;20033;-83
2021/11/03 12:21:30;;;;;;;0.70;0.40;;;9.30;99.90;;;;;;5074371;28;20519;-83
2021/11/03 12:24:30;;;;;;;2.90;0.50;;;9.30;99.90;;;;;;5058445;28;20027;-82
2021/11/03 12:27:23;;;;;;;3.03;0.50;;;9.50;99.90;;;;;;5075102;28;20024;-82
2021/11/03 12:29:57;;;;;;;1.38;0.52;;;9.50;99.90;;;;;;5058118;28;20812;-83
2021/11/03 12:33:06;;;;;;;1.63;0.40;;;9.60;99.90;;;;;;5050030;28;20036;-83
2021/11/03 12:35:31;;;;;;;1.05;0.30;;;9.50;99.90;;;;;;5057966;28;20039;-80
2021/11/03 12:38:26;;;;;;;1.17;0.30;;;9.60;99.90;;;;;;5056648;28;20029;-83
2021/11/03 12:40:52;;;;;;;0.80;0.40;;;9.50;99.90;;;;;;5068821;28;20036;-82
2021/11/03 12:43:32;;;;;;;1.25;0.40;;;9.50;99.90;;;;;;5072237;28;20012;-83
2021/11/03 12:46:07;;;;;;;1.98;0.50;;;9.40;99.90;;;;;;5074933;28;20074;-81
2021/11/03 12:48:47;;;;;;;1.70;0.65;;;9.40;99.90;;;;;;5073166;28;20385;-82
2021/11/03 12:51:38;;;;;;;1.20;0.40;;;9.40;99.90;;;;;;5054586;28;20020;-82
2021/11/03 12:54:20;;;;;;;1.42;0.40;;;9.50;99.90;;;;;;5072532;28;20025;-83
2021/11/03 12:57:20;;;;;;;0.98;0.25;;;9.50;99.90;;;;;;5072221;28;20017;-83
2021/11/03 13:00:09;;;;;;;3.45;0.30;;;9.60;99.90;;;;;;5047027;28;20795;-82
2021/11/03 13:02:44;;;;;;;0.70;0.30;;;9.60;99.90;;;;;;5062522;28;20034;-84
2021/11/03 13:05:21;;;;;;;2.05;0.40;;;9.50;99.90;;;;;;5064620;28;20508;-81
2021/11/03 13:07:48;;;;;;;1.52;0.47;;;9.50;99.90;;;;;;5050541;28;20054;-82
2021/11/03 13:10:19;;;;;;;0.68;0.30;;;9.50;99.90;;;;;;5056724;28;20033;-83
2021/11/03 13:13:13;;;;;;;1.15;0.40;;;9.40;99.90;;;;;;5057237;28;20064;-82
2021/11/03 13:15:49;;;;;;;2.88;0.30;;;9.40;99.90;;;;;;5077508;28;20016;-82